createdAt,value
2023-01-02T00:01:59.038Z,54.03
2023-01-02T00:04:25.647Z,54.23
2023-01-02T00:06:52.286Z,54.08
2023-01-02T00:09:20.060Z,53.86
2023-01-02T00:11:46.755Z,54.13
2023-01-02T00:14:13.460Z,54.18
2023-01-02T00:16:40.132Z,54.04
2023-01-02T00:19:08.726Z,54.10
2023-01-02T00:21:36.603Z,54.22
2023-01-02T00:24:03.436Z,54.17
2023-01-02T00:26:30.399Z,53.93
2023-01-02T00:28:57.095Z,53.89
2023-01-02T00:31:23.891Z,53.90
2023-01-02T00:33:50.597Z,53.49
2023-01-02T00:36:17.296Z,53.26
2023-01-02T00:38:44.070Z,53.32
2023-01-02T00:41:10.753Z,53.48
2023-01-02T00:43:37.402Z,53.57
2023-01-02T00:46:11.871Z,53.32
2023-01-02T00:48:39.410Z,53.25
2023-01-02T00:51:06.267Z,53.41
2023-01-02T00:53:34.965Z,53.37
2023-01-02T00:56:01.611Z,53.22
2023-01-02T00:58:28.264Z,53.20
2023-01-02T01:00:54.931Z,53.32
2023-01-02T01:03:21.660Z,53.28
2023-01-02T01:05:48.360Z,53.31
2023-01-02T01:08:15.041Z,53.23
2023-01-02T01:10:41.822Z,53.19
2023-01-02T01:13:08.600Z,53.22
2023-01-02T01:15:35.955Z,53.11
2023-01-02T01:18:02.894Z,53.07
2023-01-02T01:20:29.542Z,52.96
2023-01-02T01:22:56.303Z,53.17
2023-01-02T01:25:23.093Z,52.96
2023-01-02T01:27:52.365Z,52.65
2023-01-02T01:30:19.933Z,52.80
2023-01-02T01:32:46.621Z,53.00
2023-01-02T01:35:13.224Z,52.79
2023-01-02T01:37:40.223Z,52.55
2023-01-02T01:40:07.328Z,52.47
2023-01-02T01:42:34.467Z,52.75
2023-01-02T01:45:01.256Z,52.71
2023-01-02T01:47:39.720Z,52.27
2023-01-02T01:50:13.199Z,52.19
2023-01-02T01:52:42.084Z,52.20
2023-01-02T01:55:17.808Z,52.24
2023-01-02T01:57:49.289Z,52.46
2023-01-02T02:00:16.216Z,52.40
2023-01-02T02:02:46.549Z,52.37
2023-01-02T02:05:15.797Z,52.56
2023-01-02T02:07:46.333Z,52.37
2023-01-02T02:10:13.070Z,52.44
2023-01-02T02:12:39.833Z,52.32
2023-01-02T02:15:07.667Z,52.46
2023-01-02T02:17:43.883Z,52.52
2023-01-02T02:20:13.306Z,52.28
2023-01-02T02:22:45.964Z,52.18
2023-01-02T02:25:31.879Z,52.27
2023-01-02T02:28:04.654Z,52.34
2023-01-02T02:31:00.673Z,52.28
2023-01-02T02:33:50.029Z,52.16
2023-01-02T02:36:19.828Z,52.15
2023-01-02T02:38:48.143Z,52.15
2023-01-02T02:41:23.230Z,52.20
2023-01-02T02:44:08.559Z,52.10
2023-01-02T02:46:38.008Z,52.07
2023-01-02T02:49:14.041Z,51.98
2023-01-02T02:51:44.675Z,51.99
2023-01-02T02:54:34.575Z,52.02
2023-01-02T02:57:02.172Z,51.80
2023-01-02T02:59:29.580Z,51.96
2023-01-02T03:01:56.341Z,51.79
2023-01-02T03:04:23.408Z,51.84
2023-01-02T03:06:54.283Z,51.87
2023-01-02T03:09:43.730Z,51.95
2023-01-02T03:12:10.393Z,51.90
2023-01-02T03:14:37.060Z,51.95
2023-01-02T03:17:11.734Z,51.96
2023-01-02T03:19:42.457Z,51.94
2023-01-02T03:22:13.805Z,52.02
2023-01-02T03:24:42.400Z,52.11
2023-01-02T03:27:11.010Z,52.24
2023-01-02T03:29:39.680Z,52.13
2023-01-02T03:32:09.662Z,52.08
2023-01-02T03:34:38.314Z,52.23
2023-01-02T03:37:08.505Z,52.32
2023-01-02T03:39:39.467Z,52.29
2023-01-02T03:42:10.047Z,52.12
2023-01-02T03:44:58.156Z,52.28
2023-01-02T03:47:29.851Z,52.25
2023-01-02T03:49:58.740Z,52.09
2023-01-02T03:52:26.191Z,52.33
2023-01-02T03:54:53.707Z,52.28
2023-01-02T03:57:33.044Z,52.25
2023-01-02T04:00:06.545Z,52.28
2023-01-02T04:02:45.365Z,52.34
2023-01-02T04:05:15.233Z,52.19
2023-01-02T04:07:50.649Z,52.24
2023-01-02T04:10:18.269Z,52.24
2023-01-02T04:12:47.351Z,52.31
2023-01-02T04:15:15.159Z,52.21
2023-01-02T04:17:53.525Z,52.22
2023-01-02T04:20:25.943Z,52.31
2023-01-02T04:23:25.187Z,52.42
2023-01-02T04:26:12.595Z,52.27
2023-01-02T04:28:39.262Z,52.35
2023-01-02T04:31:09.649Z,52.43
2023-01-02T04:33:47.952Z,52.40
2023-01-02T04:36:15.593Z,52.19
2023-01-02T04:38:43.364Z,52.11
2023-01-02T04:41:10.390Z,51.85
2023-01-02T04:43:37.102Z,52.12
2023-01-02T04:46:03.781Z,51.88
2023-01-02T04:48:30.419Z,51.79
2023-01-02T04:50:57.061Z,51.93
2023-01-02T04:53:23.885Z,51.71
2023-01-02T04:55:55.387Z,51.79
2023-01-02T04:58:22.027Z,51.67
2023-01-02T05:00:48.670Z,51.88
2023-01-02T05:03:15.419Z,51.74
2023-01-02T05:05:42.151Z,51.83
2023-01-02T05:08:15.617Z,51.82
2023-01-02T05:10:42.907Z,51.57
2023-01-02T05:13:09.582Z,51.52
2023-01-02T05:15:36.299Z,51.57
2023-01-02T05:18:02.988Z,51.46
2023-01-02T05:20:29.669Z,51.51
2023-01-02T05:23:14.855Z,51.43
2023-01-02T05:25:41.530Z,51.41
2023-01-02T05:28:08.556Z,51.55
2023-01-02T05:30:37.708Z,51.30
2023-01-02T05:33:04.343Z,51.10
2023-01-02T05:35:33.361Z,51.43
2023-01-02T05:38:00.649Z,51.30
2023-01-02T05:40:27.364Z,51.28
2023-01-02T05:42:54.007Z,51.29
2023-01-02T05:45:20.675Z,51.34
2023-01-02T05:47:47.325Z,51.30
2023-01-02T05:50:14.045Z,51.46
2023-01-02T05:52:45.418Z,51.34
2023-01-02T05:55:12.592Z,51.38
2023-01-02T05:57:41.757Z,51.15
2023-01-02T06:00:08.692Z,51.20
2023-01-02T06:02:39.636Z,51.54
2023-01-02T06:05:07.315Z,51.27
2023-01-02T06:07:33.929Z,51.15
2023-01-02T06:10:00.956Z,51.32
2023-01-02T06:12:27.592Z,51.05
2023-01-02T06:14:54.403Z,51.13
2023-01-02T06:17:21.945Z,51.07
2023-01-02T06:19:53.665Z,50.93
2023-01-02T06:22:20.802Z,51.06
2023-01-02T06:24:47.444Z,50.91
2023-01-02T06:27:14.084Z,51.05
2023-01-02T06:29:40.735Z,50.99
2023-01-02T06:32:07.487Z,50.93
2023-01-02T06:34:34.160Z,50.88
2023-01-02T06:37:04.562Z,50.92
2023-01-02T06:39:36.020Z,50.88
2023-01-02T06:42:02.645Z,50.94
2023-01-02T06:44:29.275Z,50.80
2023-01-02T06:46:55.946Z,51.15
2023-01-02T06:49:22.578Z,50.89
2023-01-02T06:51:49.224Z,50.85
2023-01-02T06:54:15.925Z,51.01
2023-01-02T06:56:42.570Z,50.96
2023-01-02T06:59:09.817Z,51.01
2023-01-02T07:01:36.505Z,51.07
2023-01-02T07:04:03.225Z,50.93
2023-01-02T07:06:29.866Z,51.13
2023-01-02T07:08:56.609Z,50.98
2023-01-02T07:11:24.836Z,50.99
2023-01-02T07:13:52.899Z,51.10
2023-01-02T07:16:20.827Z,51.07
2023-01-02T07:18:47.767Z,50.90
2023-01-02T07:21:15.820Z,50.95
2023-01-02T07:23:42.798Z,50.71
2023-01-02T07:26:09.868Z,50.77
2023-01-02T07:28:37.370Z,50.70
2023-01-02T07:31:05.573Z,50.66
2023-01-02T07:33:32.954Z,50.79
2023-01-02T07:36:00.865Z,50.65
2023-01-02T07:38:27.879Z,50.75
2023-01-02T07:40:54.883Z,50.65
2023-01-02T07:43:21.898Z,50.80
2023-01-02T07:45:50.746Z,50.60
2023-01-02T07:48:18.132Z,50.55
2023-01-02T07:50:44.982Z,50.63
2023-01-02T07:53:11.725Z,50.83
2023-01-02T07:55:38.376Z,50.69
2023-01-02T07:58:05.042Z,50.82
2023-01-02T08:00:31.689Z,50.90
2023-01-02T08:02:58.309Z,50.86
2023-01-02T08:05:24.947Z,50.68
2023-01-02T08:07:52.203Z,50.66
2023-01-02T08:10:18.841Z,51.28
2023-01-02T08:12:45.579Z,51.99
2023-01-02T08:15:12.289Z,51.86
2023-01-02T08:17:39.648Z,51.61
2023-01-02T08:20:08.461Z,51.21
2023-01-02T08:22:35.376Z,51.06
2023-01-02T08:25:02.334Z,51.06
2023-01-02T08:27:29.371Z,50.86
2023-01-02T08:29:56.228Z,50.83
2023-01-02T08:32:23.055Z,50.48
2023-01-02T08:34:49.828Z,50.55
2023-01-02T08:37:16.569Z,45.64
2023-01-02T08:39:43.465Z,43.43
2023-01-02T08:42:10.264Z,43.86
2023-01-02T08:44:38.279Z,45.55
2023-01-02T08:47:06.002Z,46.66
2023-01-02T08:49:32.809Z,47.09
2023-01-02T08:51:59.580Z,47.69
2023-01-02T08:54:26.730Z,48.13
2023-01-02T08:56:53.587Z,48.55
2023-01-02T08:59:24.102Z,49.50
2023-01-02T09:01:52.052Z,50.13
2023-01-02T09:04:19.856Z,50.16
2023-01-02T09:06:47.303Z,50.49
2023-01-02T09:09:16.133Z,50.31
2023-01-02T09:11:52.922Z,50.51
2023-01-02T09:14:21.607Z,50.61
2023-01-02T09:16:50.778Z,50.91
2023-01-02T09:19:18.065Z,50.99
2023-01-02T09:21:45.275Z,51.61
2023-01-02T09:24:13.157Z,49.55
2023-01-02T09:26:41.859Z,50.82
2023-01-02T09:29:12.292Z,50.55
2023-01-02T09:31:40.114Z,51.22
2023-01-02T09:34:07.331Z,51.02
2023-01-02T09:36:34.141Z,51.45
2023-01-02T09:39:02.128Z,51.46
2023-01-02T09:41:34.257Z,51.73
2023-01-02T09:44:06.987Z,51.46
2023-01-02T09:46:42.107Z,51.84
2023-01-02T09:49:15.836Z,52.23
2023-01-02T09:51:44.029Z,52.03
2023-01-02T09:56:47.881Z,51.80
2023-01-02T09:59:26.021Z,51.89
2023-01-02T10:02:21.208Z,51.82
2023-01-02T10:05:06.974Z,51.77
2023-01-02T10:07:39.997Z,51.91
2023-01-02T10:10:39.883Z,51.45
2023-01-02T10:13:32.625Z,51.21
2023-01-02T10:16:20.073Z,51.13
2023-01-02T10:18:53.696Z,50.93
2023-01-02T10:21:33.932Z,51.16
2023-01-02T10:24:07.296Z,51.58
2023-01-02T10:26:41.601Z,51.63
2023-01-02T10:29:26.102Z,51.51
2023-01-02T10:31:59.471Z,51.16
2023-01-02T10:34:42.566Z,51.20
2023-01-02T10:37:14.754Z,50.88
2023-01-02T10:39:45.323Z,50.79
2023-01-02T10:42:15.059Z,50.23
2023-01-02T10:44:44.552Z,52.96
2023-01-02T10:47:35.849Z,55.48
2023-01-02T10:50:07.240Z,57.03
2023-01-02T10:52:41.760Z,57.71
2023-01-02T10:55:08.735Z,57.30
2023-01-02T10:57:51.149Z,56.96
2023-01-02T11:00:22.557Z,58.49
2023-01-02T11:02:57.051Z,57.33
2023-01-02T11:05:31.199Z,56.55
2023-01-02T11:07:59.010Z,48.31
2023-01-02T11:10:33.868Z,44.72
2023-01-02T11:13:10.356Z,44.37
2023-01-02T11:15:48.157Z,44.28
2023-01-02T11:18:22.865Z,45.58
2023-01-02T11:20:53.690Z,47.60
2023-01-02T11:23:25.146Z,48.10
2023-01-02T11:25:54.241Z,48.60
2023-01-02T11:28:28.788Z,49.61
2023-01-02T11:31:05.235Z,49.91
2023-01-02T11:33:34.895Z,50.44
2023-01-02T11:36:03.613Z,48.36
2023-01-02T11:38:49.991Z,49.39
2023-01-02T11:41:49.926Z,51.98
2023-01-02T11:44:27.038Z,53.54
2023-01-02T11:46:55.254Z,49.78
2023-01-02T11:49:38.444Z,45.77
2023-01-02T11:52:06.850Z,46.46
2023-01-02T11:55:00.010Z,49.36
2023-01-02T11:57:56.567Z,50.82
2023-01-02T12:00:30.252Z,48.86
2023-01-02T12:03:05.017Z,43.81
2023-01-02T12:05:56.680Z,44.13
2023-01-02T12:08:51.676Z,48.77
2023-01-02T12:11:34.181Z,49.45
2023-01-02T12:14:19.361Z,49.49
2023-01-02T12:16:55.410Z,49.79
2023-01-02T12:19:31.367Z,51.02
2023-01-02T12:22:04.316Z,50.83
2023-01-02T12:24:37.131Z,50.79
2023-01-02T12:27:22.331Z,50.93
2023-01-02T12:30:09.327Z,50.86
2023-01-02T12:33:02.805Z,51.20
2023-01-02T12:35:47.537Z,50.46
2023-01-02T12:38:45.307Z,50.55
2023-01-02T12:41:30.026Z,50.82
2023-01-02T12:44:33.975Z,52.41
2023-01-02T12:47:13.118Z,52.28
2023-01-02T12:49:51.737Z,52.48
2023-01-02T12:52:21.278Z,52.44
2023-01-02T12:55:00.230Z,52.19
2023-01-02T12:57:42.861Z,52.50
2023-01-02T13:00:21.655Z,51.88
2023-01-02T13:03:00.719Z,51.74
2023-01-02T13:05:38.831Z,51.94
2023-01-02T13:08:13.864Z,51.72
2023-01-02T13:10:41.218Z,51.67
2023-01-02T13:13:11.852Z,51.91
2023-01-02T13:15:42.824Z,47.98
2023-01-02T13:18:18.692Z,43.80
2023-01-02T13:21:00.692Z,42.75
2023-01-02T13:23:37.428Z,42.50
2023-01-02T13:26:10.922Z,42.32
2023-01-02T13:29:09.558Z,43.58
2023-01-02T13:31:48.063Z,46.63
2023-01-02T13:34:22.302Z,48.78
2023-01-02T13:36:57.707Z,50.41
2023-01-02T13:39:29.970Z,44.25
2023-01-02T13:42:19.150Z,43.15
2023-01-02T13:44:53.746Z,46.97
2023-01-02T13:47:39.153Z,48.03
2023-01-02T13:50:12.187Z,47.71
2023-01-02T13:52:40.922Z,47.43
2023-01-02T13:55:22.352Z,47.64
2023-01-02T13:58:12.313Z,47.67
2023-01-02T14:00:55.282Z,48.09
2023-01-02T14:03:25.518Z,48.30
2023-01-02T14:05:57.827Z,48.58
2023-01-02T14:08:29.279Z,48.58
2023-01-02T14:11:18.064Z,48.85
2023-01-02T14:13:51.897Z,48.71
2023-01-02T14:16:47.896Z,48.88
2023-01-02T14:19:20.451Z,49.17
2023-01-02T14:22:00.740Z,49.59
2023-01-02T14:24:30.692Z,49.57
2023-01-02T14:27:15.483Z,49.90
2023-01-02T14:29:53.832Z,49.97
2023-01-02T14:32:26.379Z,50.24
2023-01-02T14:34:56.144Z,50.30
2023-01-02T14:37:33.639Z,50.55
2023-01-02T14:40:16.460Z,50.73
2023-01-02T14:43:04.531Z,50.93
2023-01-02T14:45:31.662Z,50.92
2023-01-02T14:48:06.729Z,50.96
2023-01-02T14:50:36.322Z,51.01
2023-01-02T14:53:18.109Z,51.16
2023-01-02T14:55:46.539Z,51.10
2023-01-02T14:58:25.562Z,51.08
2023-01-02T15:01:00.721Z,51.01
2023-01-02T15:03:54.212Z,50.88
2023-01-02T15:06:42.843Z,50.85
2023-01-02T15:09:23.705Z,51.01
2023-01-02T15:12:14.010Z,51.07
2023-01-02T15:14:42.422Z,51.29
2023-01-02T15:17:21.890Z,51.49
2023-01-02T15:19:49.454Z,51.44
2023-01-02T15:22:19.419Z,51.50
2023-01-02T15:24:53.442Z,51.51
2023-01-02T15:27:29.721Z,51.48
2023-01-02T15:29:59.634Z,51.72
2023-01-02T15:32:28.997Z,51.70
2023-01-02T15:35:30.048Z,51.82
2023-01-02T15:37:57.001Z,52.26
2023-01-02T15:40:23.742Z,52.64
2023-01-02T15:43:16.189Z,52.21
2023-01-02T15:45:51.545Z,52.10
2023-01-02T15:48:21.994Z,51.87
2023-01-02T15:50:52.160Z,52.01
2023-01-02T15:53:30.962Z,52.02
2023-01-02T15:55:58.703Z,52.11
2023-01-02T15:58:29.665Z,52.12
2023-01-02T16:01:16.993Z,52.02
2023-01-02T16:04:00.570Z,52.16
2023-01-02T16:06:41.549Z,51.89
2023-01-02T16:09:19.410Z,51.94
2023-01-02T16:11:52.211Z,51.58
2023-01-02T16:14:37.695Z,51.68
2023-01-02T16:17:20.291Z,51.57
2023-01-02T16:19:53.290Z,51.63
2023-01-02T16:22:42.550Z,51.56
2023-01-02T16:25:29.025Z,51.68
2023-01-02T16:27:58.834Z,51.36
2023-01-02T16:30:25.623Z,52.17
2023-01-02T16:32:53.108Z,52.41
2023-01-02T16:35:25.983Z,52.21
2023-01-02T16:37:58.474Z,51.96
2023-01-02T16:40:59.751Z,51.57
2023-01-02T16:43:12.470Z,50.72
2023-01-02T16:45:39.945Z,50.73
2023-01-02T16:48:12.520Z,50.70
2023-01-02T16:50:42.948Z,50.72
2023-01-02T16:53:16.814Z,50.96
2023-01-02T16:55:43.639Z,51.41
2023-01-02T16:58:10.561Z,51.28
2023-01-02T17:00:43.211Z,51.24
2023-01-02T17:03:20.417Z,51.19
2023-01-02T17:06:01.936Z,50.92
2023-01-02T17:08:31.146Z,51.12
2023-01-02T17:10:59.702Z,51.14
2023-01-02T17:13:27.075Z,50.99
2023-01-02T17:15:54.221Z,51.16
2023-01-02T17:18:21.064Z,51.14
2023-01-02T17:20:47.984Z,51.26
2023-01-02T17:23:15.172Z,51.12
2023-01-02T17:25:46.386Z,51.48
2023-01-02T17:28:13.837Z,51.32
2023-01-02T17:30:45.150Z,51.37
2023-01-02T17:33:12.856Z,51.35
2023-01-02T17:35:40.430Z,51.31
2023-01-02T17:38:07.539Z,51.35
2023-01-02T17:40:34.613Z,50.99
2023-01-02T17:43:01.763Z,51.08
2023-01-02T17:45:28.992Z,51.29
2023-01-02T17:48:05.446Z,51.46
2023-01-02T17:50:37.335Z,50.84
2023-01-02T17:53:07.492Z,51.06
2023-01-02T17:55:34.421Z,51.09
2023-01-02T17:58:01.398Z,51.03
2023-01-02T18:00:28.674Z,51.22
2023-01-02T18:02:55.743Z,51.66
2023-01-02T18:05:23.030Z,51.50
2023-01-02T18:07:50.290Z,51.60
2023-01-02T18:10:20.360Z,50.95
2023-01-02T18:12:49.584Z,51.27
2023-01-02T18:15:19.760Z,51.26
2023-01-02T18:17:46.801Z,51.46
2023-01-02T18:20:19.280Z,51.28
2023-01-02T18:22:50.181Z,50.85
2023-01-02T18:25:28.234Z,50.56
2023-01-02T18:28:02.734Z,50.35
2023-01-02T18:30:29.908Z,49.76
2023-01-02T18:33:18.551Z,50.16
2023-01-02T18:36:01.425Z,49.88
2023-01-02T18:38:30.969Z,50.07
2023-01-02T18:40:57.850Z,50.10
2023-01-02T18:43:35.939Z,50.01
2023-01-02T18:46:17.983Z,50.13
2023-01-02T18:48:46.066Z,50.27
2023-01-02T18:51:19.094Z,49.99
2023-01-02T18:53:49.759Z,50.10
2023-01-02T18:56:18.356Z,49.98
2023-01-02T18:58:51.669Z,50.14
2023-01-02T19:01:23.914Z,50.76
2023-01-02T19:03:57.079Z,50.73
2023-01-02T19:06:28.158Z,50.83
2023-01-02T19:09:01.361Z,50.66
2023-01-02T19:11:53.088Z,50.33
2023-01-02T19:14:24.572Z,50.70
2023-01-02T19:17:23.687Z,50.78
2023-01-02T19:19:51.473Z,50.77
2023-01-02T19:22:31.397Z,51.01
2023-01-02T19:25:05.591Z,51.04
2023-01-02T19:27:38.285Z,51.55
2023-01-02T19:30:29.421Z,51.79
2023-01-02T19:32:56.572Z,51.97
2023-01-02T19:35:26.079Z,53.01
2023-01-02T19:37:52.896Z,53.11
2023-01-02T19:40:22.093Z,54.13
2023-01-02T19:42:51.123Z,54.41
2023-01-02T19:45:20.833Z,53.92
2023-01-02T19:47:49.435Z,53.66
2023-01-02T19:50:22.244Z,53.46
2023-01-02T19:52:49.658Z,53.59
2023-01-02T19:55:18.052Z,53.08
2023-01-02T19:57:45.374Z,52.55
2023-01-02T20:00:14.186Z,52.22
2023-01-02T20:02:52.239Z,52.30
2023-01-02T20:05:22.631Z,52.29
2023-01-02T20:07:52.792Z,52.31
2023-01-02T20:10:20.238Z,51.99
2023-01-02T20:12:47.265Z,51.89
2023-01-02T20:15:17.485Z,52.05
2023-01-02T20:17:45.615Z,51.84
2023-01-02T20:20:18.474Z,52.01
2023-01-02T20:22:46.220Z,51.80
2023-01-02T20:25:15.923Z,51.72
2023-01-02T20:27:42.822Z,51.72
2023-01-02T20:30:10.897Z,51.57
2023-01-02T20:32:37.753Z,51.50
2023-01-02T20:35:05.531Z,51.78
2023-01-02T20:37:32.525Z,51.62
2023-01-02T20:39:59.290Z,51.39
2023-01-02T20:42:26.066Z,51.71
2023-01-02T20:44:52.891Z,51.49
2023-01-02T20:47:20.048Z,51.13
2023-01-02T20:49:46.962Z,51.63
2023-01-02T20:52:14.311Z,51.50
2023-01-02T20:54:41.544Z,51.45
2023-01-02T20:57:08.392Z,51.35
2023-01-02T20:59:35.258Z,51.43
2023-01-02T21:02:02.133Z,51.20
2023-01-02T21:04:34.489Z,51.12
2023-01-02T21:07:04.384Z,51.22
2023-01-02T21:09:31.502Z,51.17
2023-01-02T21:11:58.352Z,51.41
2023-01-02T21:14:25.376Z,51.83
2023-01-02T21:16:52.259Z,52.05
2023-01-02T21:19:19.103Z,52.11
2023-01-02T21:21:46.206Z,52.16
2023-01-02T21:24:13.339Z,52.51
2023-01-02T21:26:40.413Z,52.54
2023-01-02T21:29:07.302Z,52.51
2023-01-02T21:31:34.178Z,52.74
2023-01-02T21:34:01.095Z,52.74
2023-01-02T21:36:28.344Z,52.82
2023-01-02T21:38:55.639Z,52.84
2023-01-02T21:41:41.006Z,52.86
2023-01-02T21:44:07.845Z,52.72
2023-01-02T21:46:34.642Z,53.00
2023-01-02T21:49:01.534Z,52.84
2023-01-02T21:51:32.773Z,52.83
2023-01-02T21:54:00.466Z,53.05
2023-01-02T21:56:27.740Z,52.84
2023-01-02T21:58:55.155Z,53.00
2023-01-02T22:01:22.340Z,53.00
2023-01-02T22:03:49.265Z,52.98
2023-01-02T22:06:18.421Z,53.11
2023-01-02T22:08:45.349Z,52.87
2023-01-02T22:11:30.512Z,53.09
2023-01-02T22:13:57.489Z,53.23
2023-01-02T22:16:24.730Z,53.05
2023-01-02T22:18:51.549Z,53.34
2023-01-02T22:21:18.397Z,53.16
2023-01-02T22:23:45.194Z,53.15
2023-01-02T22:26:12.069Z,53.31
2023-01-02T22:28:42.867Z,53.06
2023-01-02T22:31:11.166Z,53.05
2023-01-02T22:33:38.359Z,53.18
2023-01-02T22:36:05.417Z,53.06
2023-01-02T22:38:32.235Z,52.96
2023-01-02T22:40:59.398Z,53.24
2023-01-02T22:43:28.811Z,53.27
2023-01-02T22:45:56.757Z,53.53
2023-01-02T22:48:26.954Z,53.06
2023-01-02T22:50:56.985Z,52.87
2023-01-02T22:53:26.378Z,52.73
2023-01-02T22:55:53.684Z,52.95
2023-01-02T22:58:21.821Z,52.87
2023-01-02T23:00:59.521Z,52.76
2023-01-02T23:03:34.269Z,52.67
2023-01-02T23:06:01.051Z,52.70
2023-01-02T23:08:28.011Z,52.74
2023-01-02T23:10:54.896Z,52.62
2023-01-02T23:13:21.694Z,52.41
2023-01-02T23:16:07.288Z,52.25
2023-01-02T23:18:56.603Z,52.14
2023-01-02T23:21:26.345Z,52.00
2023-01-02T23:23:53.356Z,51.78
2023-01-02T23:26:22.333Z,52.27
2023-01-02T23:29:06.601Z,51.96
2023-01-02T23:31:36.021Z,51.96
2023-01-02T23:34:02.892Z,51.66
2023-01-02T23:36:29.942Z,51.79
2023-01-02T23:38:56.786Z,51.68
2023-01-02T23:41:23.638Z,51.68
2023-01-02T23:43:51.583Z,51.50
2023-01-02T23:46:18.674Z,51.52
2023-01-02T23:48:45.580Z,51.35
2023-01-02T23:51:12.355Z,51.42
2023-01-02T23:53:39.511Z,51.01
2023-01-02T23:56:26.246Z,51.06
2023-01-02T23:58:54.732Z,51.16
